sensor_id;sensor_type;location;lat;lon;timestamp;P1;durP1;ratioP1;P2;durP2;ratioP2
29954;SDS011;68448;51.188;6.868;2023-03-12T00:02:02;6.10;;;5.10;;
29954;SDS011;68448;51.188;6.868;2023-03-12T00:04:30;7.10;;;5.27;;
29954;SDS011;68448;51.188;6.868;2023-03-12T00:06:57;8.50;;;5.30;;
29954;SDS011;68448;51.188;6.868;2023-03-12T00:09:24;9.87;;;5.73;;
29954;SDS011;68448;51.188;6.868;2023-03-12T00:11:51;7.73;;;4.70;;
29954;SDS011;68448;51.188;6.868;2023-03-12T00:14:19;9.13;;;4.90;;
29954;SDS011;68448;51.188;6.868;2023-03-12T00:16:46;7.90;;;4.70;;
29954;SDS011;68448;51.188;6.868;2023-03-12T00:19:15;13.03;;;5.37;;
29954;SDS011;68448;51.188;6.868;2023-03-12T00:21:42;9.30;;;4.70;;
29954;SDS011;68448;51.188;6.868;2023-03-12T00:24:09;5.63;;;4.43;;
29954;SDS011;68448;51.188;6.868;2023-03-12T00:26:36;10.57;;;5.20;;
29954;SDS011;68448;51.188;6.868;2023-03-12T00:29:03;8.10;;;4.67;;
29954;SDS011;68448;51.188;6.868;2023-03-12T00:31:31;9.93;;;4.93;;
29954;SDS011;68448;51.188;6.868;2023-03-12T00:33:58;7.10;;;4.23;;
29954;SDS011;68448;51.188;6.868;2023-03-12T00:36:27;9.87;;;4.40;;
29954;SDS011;68448;51.188;6.868;2023-03-12T00:38:55;9.00;;;3.90;;
29954;SDS011;68448;51.188;6.868;2023-03-12T00:41:23;6.40;;;4.30;;
29954;SDS011;68448;51.188;6.868;2023-03-12T00:43:50;6.70;;;3.83;;
29954;SDS011;68448;51.188;6.868;2023-03-12T00:46:18;5.77;;;3.80;;
29954;SDS011;68448;51.188;6.868;2023-03-12T00:48:45;6.47;;;3.87;;
29954;SDS011;68448;51.188;6.868;2023-03-12T00:51:13;7.30;;;4.63;;
29954;SDS011;68448;51.188;6.868;2023-03-12T00:53:41;8.33;;;4.20;;
29954;SDS011;68448;51.188;6.868;2023-03-12T00:56:09;9.70;;;3.97;;
29954;SDS011;68448;51.188;6.868;2023-03-12T00:58:36;7.07;;;3.80;;
29954;SDS011;68448;51.188;6.868;2023-03-12T01:01:03;8.60;;;5.50;;
29954;SDS011;68448;51.188;6.868;2023-03-12T01:03:30;5.40;;;3.80;;
29954;SDS011;68448;51.188;6.868;2023-03-12T01:05:58;9.13;;;4.30;;
29954;SDS011;68448;51.188;6.868;2023-03-12T01:08:25;7.00;;;4.57;;
29954;SDS011;68448;51.188;6.868;2023-03-12T01:10:54;5.40;;;3.67;;
29954;SDS011;68448;51.188;6.868;2023-03-12T01:13:21;7.60;;;3.30;;
29954;SDS011;68448;51.188;6.868;2023-03-12T01:15:48;6.50;;;3.93;;
29954;SDS011;68448;51.188;6.868;2023-03-12T01:18:15;7.30;;;3.50;;
29954;SDS011;68448;51.188;6.868;2023-03-12T01:20:42;9.63;;;4.47;;
29954;SDS011;68448;51.188;6.868;2023-03-12T01:23:09;8.53;;;4.13;;
29954;SDS011;68448;51.188;6.868;2023-03-12T01:25:36;6.60;;;3.27;;
29954;SDS011;68448;51.188;6.868;2023-03-12T01:28:05;5.83;;;3.40;;
29954;SDS011;68448;51.188;6.868;2023-03-12T01:30:32;4.40;;;3.60;;
29954;SDS011;68448;51.188;6.868;2023-03-12T01:32:59;9.77;;;4.10;;
29954;SDS011;68448;51.188;6.868;2023-03-12T01:35:26;12.50;;;4.00;;
29954;SDS011;68448;51.188;6.868;2023-03-12T01:37:54;6.23;;;3.77;;
29954;SDS011;68448;51.188;6.868;2023-03-12T01:40:21;4.47;;;3.60;;
29954;SDS011;68448;51.188;6.868;2023-03-12T01:42:50;9.40;;;3.33;;
29954;SDS011;68448;51.188;6.868;2023-03-12T01:48:05;6.20;;;3.30;;
29954;SDS011;68448;51.188;6.868;2023-03-12T01:50:32;7.40;;;3.60;;
29954;SDS011;68448;51.188;6.868;2023-03-12T01:52:59;4.67;;;3.40;;
29954;SDS011;68448;51.188;6.868;2023-03-12T01:55:27;6.93;;;2.97;;
29954;SDS011;68448;51.188;6.868;2023-03-12T01:57:54;4.63;;;3.13;;
29954;SDS011;68448;51.188;6.868;2023-03-12T02:00:23;8.23;;;3.57;;
29954;SDS011;68448;51.188;6.868;2023-03-12T02:02:54;5.20;;;3.43;;
29954;SDS011;68448;51.188;6.868;2023-03-12T02:05:26;6.90;;;4.27;;
29954;SDS011;68448;51.188;6.868;2023-03-12T02:07:53;8.80;;;3.40;;
29954;SDS011;68448;51.188;6.868;2023-03-12T02:10:20;8.70;;;4.53;;
29954;SDS011;68448;51.188;6.868;2023-03-12T02:12:48;5.60;;;3.30;;
29954;SDS011;68448;51.188;6.868;2023-03-12T02:15:15;6.93;;;3.33;;
29954;SDS011;68448;51.188;6.868;2023-03-12T02:17:43;13.40;;;4.80;;
29954;SDS011;68448;51.188;6.868;2023-03-12T02:20:12;7.97;;;3.60;;
29954;SDS011;68448;51.188;6.868;2023-03-12T02:22:43;4.90;;;3.80;;
29954;SDS011;68448;51.188;6.868;2023-03-12T02:25:17;3.57;;;3.03;;
29954;SDS011;68448;51.188;6.868;2023-03-12T02:27:44;7.10;;;3.60;;
29954;SDS011;68448;51.188;6.868;2023-03-12T02:30:13;7.40;;;3.80;;
29954;SDS011;68448;51.188;6.868;2023-03-12T02:32:41;6.20;;;3.13;;
29954;SDS011;68448;51.188;6.868;2023-03-12T02:35:09;7.90;;;3.73;;
29954;SDS011;68448;51.188;6.868;2023-03-12T02:37:45;9.23;;;3.20;;
29954;SDS011;68448;51.188;6.868;2023-03-12T02:40:14;5.67;;;4.10;;
29954;SDS011;68448;51.188;6.868;2023-03-12T02:42:45;4.47;;;3.40;;
29954;SDS011;68448;51.188;6.868;2023-03-12T02:45:12;11.07;;;3.70;;
29954;SDS011;68448;51.188;6.868;2023-03-12T02:47:40;8.23;;;3.33;;
29954;SDS011;68448;51.188;6.868;2023-03-12T02:50:07;5.77;;;3.47;;
29954;SDS011;68448;51.188;6.868;2023-03-12T02:52:34;11.83;;;3.37;;
29954;SDS011;68448;51.188;6.868;2023-03-12T02:55:02;7.73;;;3.20;;
29954;SDS011;68448;51.188;6.868;2023-03-12T02:57:29;4.60;;;3.10;;
29954;SDS011;68448;51.188;6.868;2023-03-12T02:59:58;3.60;;;3.20;;
29954;SDS011;68448;51.188;6.868;2023-03-12T03:02:25;3.57;;;3.23;;
29954;SDS011;68448;51.188;6.868;2023-03-12T03:04:52;8.63;;;3.23;;
29954;SDS011;68448;51.188;6.868;2023-03-12T03:07:19;9.87;;;3.30;;
29954;SDS011;68448;51.188;6.868;2023-03-12T03:09:46;2.80;;;2.50;;
29954;SDS011;68448;51.188;6.868;2023-03-12T03:12:13;7.33;;;3.27;;
29954;SDS011;68448;51.188;6.868;2023-03-12T03:14:41;9.00;;;4.33;;
29954;SDS011;68448;51.188;6.868;2023-03-12T03:17:10;9.10;;;3.00;;
29954;SDS011;68448;51.188;6.868;2023-03-12T03:19:37;4.63;;;2.93;;
29954;SDS011;68448;51.188;6.868;2023-03-12T03:22:04;6.60;;;3.10;;
29954;SDS011;68448;51.188;6.868;2023-03-12T03:24:32;9.83;;;3.60;;
29954;SDS011;68448;51.188;6.868;2023-03-12T03:26:59;3.83;;;3.40;;
29954;SDS011;68448;51.188;6.868;2023-03-12T03:29:26;4.10;;;3.10;;
29954;SDS011;68448;51.188;6.868;2023-03-12T03:31:53;9.10;;;2.80;;
29954;SDS011;68448;51.188;6.868;2023-03-12T03:34:22;6.53;;;3.27;;
29954;SDS011;68448;51.188;6.868;2023-03-12T03:36:49;4.83;;;2.90;;
29954;SDS011;68448;51.188;6.868;2023-03-12T03:39:16;4.37;;;3.30;;
29954;SDS011;68448;51.188;6.868;2023-03-12T03:41:44;12.40;;;3.83;;
29954;SDS011;68448;51.188;6.868;2023-03-12T03:44:12;3.53;;;2.50;;
29954;SDS011;68448;51.188;6.868;2023-03-12T03:46:41;6.13;;;3.00;;
29954;SDS011;68448;51.188;6.868;2023-03-12T03:49:09;4.37;;;2.53;;
29954;SDS011;68448;51.188;6.868;2023-03-12T03:51:40;4.77;;;2.60;;
29954;SDS011;68448;51.188;6.868;2023-03-12T03:54:09;3.40;;;2.30;;
29954;SDS011;68448;51.188;6.868;2023-03-12T03:56:38;7.20;;;2.90;;
29954;SDS011;68448;51.188;6.868;2023-03-12T03:59:06;6.47;;;3.40;;
29954;SDS011;68448;51.188;6.868;2023-03-12T04:01:36;5.47;;;2.57;;
29954;SDS011;68448;51.188;6.868;2023-03-12T04:04:03;5.23;;;2.60;;
29954;SDS011;68448;51.188;6.868;2023-03-12T04:06:32;8.10;;;2.67;;
29954;SDS011;68448;51.188;6.868;2023-03-12T04:09:01;4.80;;;3.20;;
29954;SDS011;68448;51.188;6.868;2023-03-12T04:11:30;10.03;;;3.30;;
29954;SDS011;68448;51.188;6.868;2023-03-12T04:13:58;5.90;;;2.80;;
29954;SDS011;68448;51.188;6.868;2023-03-12T04:16:29;6.20;;;2.80;;
29954;SDS011;68448;51.188;6.868;2023-03-12T04:18:56;5.60;;;2.60;;
29954;SDS011;68448;51.188;6.868;2023-03-12T04:21:25;3.90;;;3.20;;
29954;SDS011;68448;51.188;6.868;2023-03-12T04:23:52;4.77;;;2.80;;
29954;SDS011;68448;51.188;6.868;2023-03-12T04:26:24;3.73;;;2.40;;
29954;SDS011;68448;51.188;6.868;2023-03-12T04:28:53;5.57;;;2.80;;
29954;SDS011;68448;51.188;6.868;2023-03-12T04:31:20;4.17;;;2.63;;
29954;SDS011;68448;51.188;6.868;2023-03-12T04:33:49;5.20;;;2.63;;
29954;SDS011;68448;51.188;6.868;2023-03-12T04:36:18;7.33;;;2.77;;
29954;SDS011;68448;51.188;6.868;2023-03-12T04:38:47;5.33;;;2.83;;
29954;SDS011;68448;51.188;6.868;2023-03-12T04:41:17;7.00;;;3.27;;
29954;SDS011;68448;51.188;6.868;2023-03-12T04:43:50;4.67;;;2.70;;
29954;SDS011;68448;51.188;6.868;2023-03-12T04:46:18;4.97;;;3.10;;
29954;SDS011;68448;51.188;6.868;2023-03-12T04:48:46;4.67;;;2.70;;
29954;SDS011;68448;51.188;6.868;2023-03-12T04:51:14;6.87;;;2.70;;
29954;SDS011;68448;51.188;6.868;2023-03-12T04:53:41;4.20;;;2.80;;
29954;SDS011;68448;51.188;6.868;2023-03-12T04:56:11;4.57;;;3.10;;
29954;SDS011;68448;51.188;6.868;2023-03-12T04:58:40;3.00;;;2.70;;
29954;SDS011;68448;51.188;6.868;2023-03-12T05:01:11;8.87;;;2.80;;
29954;SDS011;68448;51.188;6.868;2023-03-12T05:03:45;7.50;;;3.00;;
29954;SDS011;68448;51.188;6.868;2023-03-12T05:06:12;9.70;;;3.93;;
29954;SDS011;68448;51.188;6.868;2023-03-12T05:08:40;4.70;;;2.90;;
29954;SDS011;68448;51.188;6.868;2023-03-12T05:11:07;7.17;;;3.63;;
29954;SDS011;68448;51.188;6.868;2023-03-12T05:13:34;3.67;;;3.00;;
29954;SDS011;68448;51.188;6.868;2023-03-12T05:16:01;11.30;;;2.60;;
29954;SDS011;68448;51.188;6.868;2023-03-12T05:18:31;5.93;;;2.97;;
29954;SDS011;68448;51.188;6.868;2023-03-12T05:20:58;4.70;;;2.43;;
29954;SDS011;68448;51.188;6.868;2023-03-12T05:23:26;4.17;;;2.77;;
29954;SDS011;68448;51.188;6.868;2023-03-12T05:25:53;7.57;;;3.03;;
29954;SDS011;68448;51.188;6.868;2023-03-12T05:28:21;5.53;;;3.00;;
29954;SDS011;68448;51.188;6.868;2023-03-12T05:30:48;4.13;;;2.60;;
29954;SDS011;68448;51.188;6.868;2023-03-12T05:33:15;6.10;;;2.77;;
29954;SDS011;68448;51.188;6.868;2023-03-12T05:35:44;11.00;;;3.43;;
29954;SDS011;68448;51.188;6.868;2023-03-12T05:38:11;5.47;;;3.20;;
29954;SDS011;68448;51.188;6.868;2023-03-12T05:40:38;7.63;;;3.70;;
29954;SDS011;68448;51.188;6.868;2023-03-12T05:43:05;3.60;;;2.90;;
29954;SDS011;68448;51.188;6.868;2023-03-12T05:45:33;4.17;;;2.80;;
29954;SDS011;68448;51.188;6.868;2023-03-12T05:48:01;10.17;;;3.00;;
29954;SDS011;68448;51.188;6.868;2023-03-12T05:50:28;4.57;;;2.90;;
29954;SDS011;68448;51.188;6.868;2023-03-12T05:52:57;4.50;;;2.87;;
29954;SDS011;68448;51.188;6.868;2023-03-12T05:55:24;5.33;;;2.80;;
29954;SDS011;68448;51.188;6.868;2023-03-12T05:57:52;8.70;;;3.70;;
29954;SDS011;68448;51.188;6.868;2023-03-12T06:00:19;9.83;;;3.73;;
29954;SDS011;68448;51.188;6.868;2023-03-12T06:02:53;9.17;;;3.10;;
29954;SDS011;68448;51.188;6.868;2023-03-12T06:05:20;8.70;;;3.57;;
29954;SDS011;68448;51.188;6.868;2023-03-12T06:07:47;4.80;;;2.73;;
29954;SDS011;68448;51.188;6.868;2023-03-12T06:10:16;7.03;;;3.50;;
29954;SDS011;68448;51.188;6.868;2023-03-12T06:12:43;10.43;;;3.43;;
29954;SDS011;68448;51.188;6.868;2023-03-12T06:15:10;16.47;;;3.10;;
29954;SDS011;68448;51.188;6.868;2023-03-12T06:17:37;6.17;;;3.30;;
29954;SDS011;68448;51.188;6.868;2023-03-12T06:20:05;8.27;;;3.57;;
29954;SDS011;68448;51.188;6.868;2023-03-12T06:22:33;5.70;;;2.97;;
29954;SDS011;68448;51.188;6.868;2023-03-12T06:25:00;12.83;;;4.33;;
29954;SDS011;68448;51.188;6.868;2023-03-12T06:27:29;7.37;;;3.50;;
29954;SDS011;68448;51.188;6.868;2023-03-12T06:29:56;7.77;;;3.73;;
29954;SDS011;68448;51.188;6.868;2023-03-12T06:32:23;5.67;;;3.50;;
29954;SDS011;68448;51.188;6.868;2023-03-12T06:34:50;7.70;;;3.80;;
29954;SDS011;68448;51.188;6.868;2023-03-12T06:37:18;9.83;;;4.33;;
29954;SDS011;68448;51.188;6.868;2023-03-12T06:39:45;5.43;;;4.03;;
29954;SDS011;68448;51.188;6.868;2023-03-12T06:42:12;5.33;;;3.53;;
29954;SDS011;68448;51.188;6.868;2023-03-12T06:44:41;6.03;;;3.20;;
29954;SDS011;68448;51.188;6.868;2023-03-12T06:47:08;8.27;;;3.30;;
29954;SDS011;68448;51.188;6.868;2023-03-12T06:49:35;8.90;;;3.37;;
29954;SDS011;68448;51.188;6.868;2023-03-12T06:52:02;5.50;;;3.00;;
29954;SDS011;68448;51.188;6.868;2023-03-12T06:54:29;8.03;;;3.40;;
29954;SDS011;68448;51.188;6.868;2023-03-12T06:56:56;6.17;;;3.03;;
29954;SDS011;68448;51.188;6.868;2023-03-12T06:59:23;5.97;;;3.53;;
29954;SDS011;68448;51.188;6.868;2023-03-12T07:01:52;6.93;;;2.97;;
29954;SDS011;68448;51.188;6.868;2023-03-12T07:04:19;8.80;;;3.87;;
29954;SDS011;68448;51.188;6.868;2023-03-12T07:06:46;6.87;;;3.10;;
29954;SDS011;68448;51.188;6.868;2023-03-12T07:09:13;4.80;;;3.23;;
29954;SDS011;68448;51.188;6.868;2023-03-12T07:11:40;6.60;;;3.50;;
29954;SDS011;68448;51.188;6.868;2023-03-12T07:14:07;6.30;;;4.13;;
29954;SDS011;68448;51.188;6.868;2023-03-12T07:16:34;7.00;;;3.67;;
29954;SDS011;68448;51.188;6.868;2023-03-12T07:19:03;6.27;;;3.43;;
29954;SDS011;68448;51.188;6.868;2023-03-12T07:21:30;6.20;;;3.23;;
29954;SDS011;68448;51.188;6.868;2023-03-12T07:23:57;15.70;;;3.40;;
29954;SDS011;68448;51.188;6.868;2023-03-12T07:26:24;10.30;;;3.60;;
29954;SDS011;68448;51.188;6.868;2023-03-12T07:28:52;6.03;;;4.00;;
29954;SDS011;68448;51.188;6.868;2023-03-12T07:31:19;7.30;;;3.40;;
29954;SDS011;68448;51.188;6.868;2023-03-12T07:33:46;8.70;;;4.50;;
29954;SDS011;68448;51.188;6.868;2023-03-12T07:36:14;4.00;;;3.37;;
29954;SDS011;68448;51.188;6.868;2023-03-12T07:38:42;11.10;;;4.37;;
29954;SDS011;68448;51.188;6.868;2023-03-12T07:41:09;5.40;;;3.40;;
29954;SDS011;68448;51.188;6.868;2023-03-12T07:43:36;7.43;;;4.07;;
29954;SDS011;68448;51.188;6.868;2023-03-12T07:46:03;10.00;;;3.60;;
29954;SDS011;68448;51.188;6.868;2023-03-12T07:48:30;5.43;;;4.03;;
29954;SDS011;68448;51.188;6.868;2023-03-12T07:50:58;6.50;;;3.57;;
29954;SDS011;68448;51.188;6.868;2023-03-12T07:53:26;4.90;;;3.37;;
29954;SDS011;68448;51.188;6.868;2023-03-12T07:55:53;5.07;;;3.20;;
29954;SDS011;68448;51.188;6.868;2023-03-12T07:58:21;6.10;;;3.93;;
29954;SDS011;68448;51.188;6.868;2023-03-12T08:00:48;5.43;;;3.70;;
29954;SDS011;68448;51.188;6.868;2023-03-12T08:03:15;6.77;;;3.57;;
29954;SDS011;68448;51.188;6.868;2023-03-12T08:05:43;7.07;;;3.67;;
29954;SDS011;68448;51.188;6.868;2023-03-12T08:08:11;6.57;;;3.47;;
29954;SDS011;68448;51.188;6.868;2023-03-12T08:10:39;11.60;;;4.37;;
29954;SDS011;68448;51.188;6.868;2023-03-12T08:13:06;5.63;;;3.97;;
29954;SDS011;68448;51.188;6.868;2023-03-12T08:15:34;10.00;;;3.43;;
29954;SDS011;68448;51.188;6.868;2023-03-12T08:18:01;6.93;;;3.10;;
29954;SDS011;68448;51.188;6.868;2023-03-12T08:20:28;5.37;;;3.80;;
29954;SDS011;68448;51.188;6.868;2023-03-12T08:22:56;4.63;;;3.80;;
29954;SDS011;68448;51.188;6.868;2023-03-12T08:25:23;8.60;;;3.50;;
29954;SDS011;68448;51.188;6.868;2023-03-12T08:27:51;4.50;;;3.20;;
29954;SDS011;68448;51.188;6.868;2023-03-12T08:30:18;8.57;;;3.70;;
29954;SDS011;68448;51.188;6.868;2023-03-12T08:32:46;8.23;;;3.50;;
29954;SDS011;68448;51.188;6.868;2023-03-12T08:35:13;7.40;;;3.50;;
29954;SDS011;68448;51.188;6.868;2023-03-12T08:37:40;7.93;;;4.13;;
29954;SDS011;68448;51.188;6.868;2023-03-12T08:40:07;8.90;;;4.73;;
29954;SDS011;68448;51.188;6.868;2023-03-12T08:42:35;8.00;;;4.10;;
29954;SDS011;68448;51.188;6.868;2023-03-12T08:45:03;7.40;;;4.50;;
29954;SDS011;68448;51.188;6.868;2023-03-12T08:47:30;10.17;;;5.60;;
29954;SDS011;68448;51.188;6.868;2023-03-12T08:49:57;6.43;;;4.10;;
29954;SDS011;68448;51.188;6.868;2023-03-12T08:52:25;10.40;;;5.60;;
29954;SDS011;68448;51.188;6.868;2023-03-12T08:54:52;12.33;;;5.97;;
29954;SDS011;68448;51.188;6.868;2023-03-12T08:57:19;8.30;;;4.77;;
29954;SDS011;68448;51.188;6.868;2023-03-12T08:59:46;11.80;;;6.27;;
29954;SDS011;68448;51.188;6.868;2023-03-12T09:02:15;12.20;;;6.97;;
29954;SDS011;68448;51.188;6.868;2023-03-12T09:04:42;9.77;;;5.20;;
29954;SDS011;68448;51.188;6.868;2023-03-12T09:07:13;6.10;;;5.50;;
29954;SDS011;68448;51.188;6.868;2023-03-12T09:09:40;6.07;;;4.77;;
29954;SDS011;68448;51.188;6.868;2023-03-12T09:12:07;7.20;;;5.63;;
29954;SDS011;68448;51.188;6.868;2023-03-12T09:14:34;7.67;;;5.60;;
29954;SDS011;68448;51.188;6.868;2023-03-12T09:17:23;9.30;;;5.70;;
29954;SDS011;68448;51.188;6.868;2023-03-12T09:19:50;13.57;;;5.80;;
29954;SDS011;68448;51.188;6.868;2023-03-12T09:22:17;11.13;;;6.87;;
29954;SDS011;68448;51.188;6.868;2023-03-12T09:24:44;12.43;;;6.27;;
29954;SDS011;68448;51.188;6.868;2023-03-12T09:27:11;12.50;;;5.50;;
29954;SDS011;68448;51.188;6.868;2023-03-12T09:29:38;12.57;;;6.60;;
29954;SDS011;68448;51.188;6.868;2023-03-12T09:32:25;13.73;;;7.70;;
29954;SDS011;68448;51.188;6.868;2023-03-12T09:34:53;9.80;;;5.90;;
29954;SDS011;68448;51.188;6.868;2023-03-12T09:37:20;9.27;;;7.23;;
29954;SDS011;68448;51.188;6.868;2023-03-12T09:39:49;9.67;;;6.30;;
29954;SDS011;68448;51.188;6.868;2023-03-12T09:42:20;11.10;;;7.43;;
29954;SDS011;68448;51.188;6.868;2023-03-12T09:44:48;8.40;;;5.53;;
29954;SDS011;68448;51.188;6.868;2023-03-12T09:47:19;17.60;;;8.13;;
29954;SDS011;68448;51.188;6.868;2023-03-12T09:49:50;17.23;;;7.87;;
29954;SDS011;68448;51.188;6.868;2023-03-12T09:52:20;18.13;;;7.83;;
29954;SDS011;68448;51.188;6.868;2023-03-12T09:54:51;9.70;;;7.60;;
29954;SDS011;68448;51.188;6.868;2023-03-12T09:57:21;13.77;;;8.13;;
29954;SDS011;68448;51.188;6.868;2023-03-12T09:59:49;13.70;;;7.40;;
29954;SDS011;68448;51.188;6.868;2023-03-12T10:02:24;13.70;;;8.13;;
29954;SDS011;68448;51.188;6.868;2023-03-12T10:04:54;10.63;;;8.63;;
29954;SDS011;68448;51.188;6.868;2023-03-12T10:07:27;15.00;;;9.30;;
29954;SDS011;68448;51.188;6.868;2023-03-12T10:10:06;10.13;;;7.63;;
29954;SDS011;68448;51.188;6.868;2023-03-12T10:12:40;15.00;;;9.23;;
29954;SDS011;68448;51.188;6.868;2023-03-12T10:15:14;14.17;;;9.97;;
29954;SDS011;68448;51.188;6.868;2023-03-12T10:17:46;11.23;;;7.30;;
29954;SDS011;68448;51.188;6.868;2023-03-12T10:20:31;15.30;;;9.10;;
29954;SDS011;68448;51.188;6.868;2023-03-12T10:23:00;16.20;;;9.43;;
29954;SDS011;68448;51.188;6.868;2023-03-12T10:25:34;13.43;;;8.90;;
29954;SDS011;68448;51.188;6.868;2023-03-12T10:28:06;12.67;;;9.03;;
29954;SDS011;68448;51.188;6.868;2023-03-12T10:30:37;15.30;;;10.20;;
29954;SDS011;68448;51.188;6.868;2023-03-12T10:33:09;16.30;;;10.57;;
29954;SDS011;68448;51.188;6.868;2023-03-12T10:35:39;11.47;;;9.43;;
29954;SDS011;68448;51.188;6.868;2023-03-12T10:38:08;15.83;;;9.47;;
29954;SDS011;68448;51.188;6.868;2023-03-12T10:40:37;13.80;;;8.17;;
29954;SDS011;68448;51.188;6.868;2023-03-12T10:43:06;14.63;;;9.20;;
29954;SDS011;68448;51.188;6.868;2023-03-12T10:45:33;18.20;;;10.70;;
29954;SDS011;68448;51.188;6.868;2023-03-12T10:48:03;13.90;;;10.20;;
29954;SDS011;68448;51.188;6.868;2023-03-12T10:50:31;16.13;;;9.93;;
29954;SDS011;68448;51.188;6.868;2023-03-12T10:53:16;14.60;;;9.27;;
29954;SDS011;68448;51.188;6.868;2023-03-12T10:55:50;17.00;;;9.97;;
29954;SDS011;68448;51.188;6.868;2023-03-12T10:58:23;12.53;;;9.60;;
29954;SDS011;68448;51.188;6.868;2023-03-12T11:00:54;12.03;;;9.33;;
29954;SDS011;68448;51.188;6.868;2023-03-12T11:03:22;12.40;;;8.13;;
29954;SDS011;68448;51.188;6.868;2023-03-12T11:05:49;13.30;;;9.27;;
29954;SDS011;68448;51.188;6.868;2023-03-12T11:08:20;10.67;;;9.03;;
29954;SDS011;68448;51.188;6.868;2023-03-12T11:10:47;15.47;;;10.70;;
29954;SDS011;68448;51.188;6.868;2023-03-12T11:13:22;12.93;;;10.03;;
29954;SDS011;68448;51.188;6.868;2023-03-12T11:15:50;13.60;;;11.37;;
29954;SDS011;68448;51.188;6.868;2023-03-12T11:18:22;14.60;;;10.83;;
29954;SDS011;68448;51.188;6.868;2023-03-12T11:20:50;12.83;;;10.43;;
29954;SDS011;68448;51.188;6.868;2023-03-12T11:23:21;15.77;;;10.70;;
29954;SDS011;68448;51.188;6.868;2023-03-12T11:25:52;15.97;;;11.73;;
29954;SDS011;68448;51.188;6.868;2023-03-12T11:28:21;14.70;;;11.23;;
29954;SDS011;68448;51.188;6.868;2023-03-12T11:30:49;16.53;;;13.57;;
29954;SDS011;68448;51.188;6.868;2023-03-12T11:33:17;15.17;;;11.07;;
29954;SDS011;68448;51.188;6.868;2023-03-12T11:35:48;18.40;;;12.93;;
29954;SDS011;68448;51.188;6.868;2023-03-12T11:38:17;15.90;;;11.90;;
29954;SDS011;68448;51.188;6.868;2023-03-12T11:40:56;17.27;;;12.37;;
29954;SDS011;68448;51.188;6.868;2023-03-12T11:43:27;16.67;;;13.63;;
29954;SDS011;68448;51.188;6.868;2023-03-12T11:48:55;20.63;;;13.30;;
29954;SDS011;68448;51.188;6.868;2023-03-12T11:51:30;20.17;;;12.47;;
29954;SDS011;68448;51.188;6.868;2023-03-12T11:54:02;16.13;;;12.17;;
29954;SDS011;68448;51.188;6.868;2023-03-12T11:56:35;20.67;;;13.40;;
29954;SDS011;68448;51.188;6.868;2023-03-12T11:59:09;22.60;;;14.10;;
29954;SDS011;68448;51.188;6.868;2023-03-12T12:01:43;18.60;;;13.10;;
29954;SDS011;68448;51.188;6.868;2023-03-12T12:04:25;19.77;;;13.37;;
29954;SDS011;68448;51.188;6.868;2023-03-12T12:06:56;14.60;;;11.70;;
29954;SDS011;68448;51.188;6.868;2023-03-12T12:09:27;20.70;;;13.07;;
29954;SDS011;68448;51.188;6.868;2023-03-12T12:12:01;20.23;;;12.67;;
29954;SDS011;68448;51.188;6.868;2023-03-12T12:14:36;23.17;;;14.80;;
29954;SDS011;68448;51.188;6.868;2023-03-12T12:17:07;21.00;;;14.00;;
29954;SDS011;68448;51.188;6.868;2023-03-12T12:19:40;20.60;;;13.80;;
29954;SDS011;68448;51.188;6.868;2023-03-12T12:22:13;24.57;;;14.17;;
29954;SDS011;68448;51.188;6.868;2023-03-12T12:24:50;15.37;;;12.40;;
29954;SDS011;68448;51.188;6.868;2023-03-12T12:27:22;22.10;;;14.53;;
29954;SDS011;68448;51.188;6.868;2023-03-12T12:29:56;24.93;;;13.67;;
29954;SDS011;68448;51.188;6.868;2023-03-12T12:32:26;21.60;;;13.50;;
29954;SDS011;68448;51.188;6.868;2023-03-12T12:35:00;20.93;;;13.77;;
29954;SDS011;68448;51.188;6.868;2023-03-12T12:37:30;19.90;;;13.40;;
29954;SDS011;68448;51.188;6.868;2023-03-12T12:40:02;24.60;;;12.10;;
29954;SDS011;68448;51.188;6.868;2023-03-12T12:42:33;21.00;;;14.80;;
29954;SDS011;68448;51.188;6.868;2023-03-12T12:45:01;29.47;;;13.83;;
29954;SDS011;68448;51.188;6.868;2023-03-12T12:47:31;24.23;;;14.30;;
29954;SDS011;68448;51.188;6.868;2023-03-12T12:50:00;22.03;;;13.20;;
29954;SDS011;68448;51.188;6.868;2023-03-12T12:52:28;28.93;;;14.17;;
29954;SDS011;68448;51.188;6.868;2023-03-12T12:54:57;23.53;;;13.13;;
29954;SDS011;68448;51.188;6.868;2023-03-12T12:57:28;21.73;;;13.03;;
29954;SDS011;68448;51.188;6.868;2023-03-12T13:00:02;23.83;;;12.67;;
29954;SDS011;68448;51.188;6.868;2023-03-12T13:02:37;26.90;;;10.07;;
29954;SDS011;68448;51.188;6.868;2023-03-12T13:05:12;23.27;;;8.53;;
29954;SDS011;68448;51.188;6.868;2023-03-12T13:07:43;21.70;;;9.00;;
29954;SDS011;68448;51.188;6.868;2023-03-12T13:10:36;21.07;;;9.07;;
29954;SDS011;68448;51.188;6.868;2023-03-12T13:13:19;24.43;;;7.70;;
29954;SDS011;68448;51.188;6.868;2023-03-12T13:15:48;23.33;;;7.63;;
29954;SDS011;68448;51.188;6.868;2023-03-12T13:18:22;23.03;;;8.33;;
29954;SDS011;68448;51.188;6.868;2023-03-12T13:20:59;22.97;;;6.90;;
29954;SDS011;68448;51.188;6.868;2023-03-12T13:23:31;23.53;;;8.93;;
29954;SDS011;68448;51.188;6.868;2023-03-12T13:26:02;24.77;;;6.53;;
29954;SDS011;68448;51.188;6.868;2023-03-12T13:28:32;30.57;;;7.80;;
29954;SDS011;68448;51.188;6.868;2023-03-12T13:31:01;30.97;;;8.30;;
29954;SDS011;68448;51.188;6.868;2023-03-12T13:33:35;23.73;;;8.00;;
29954;SDS011;68448;51.188;6.868;2023-03-12T13:36:08;26.07;;;6.57;;
29954;SDS011;68448;51.188;6.868;2023-03-12T13:38:37;19.07;;;6.83;;
29954;SDS011;68448;51.188;6.868;2023-03-12T13:41:05;23.40;;;7.40;;
29954;SDS011;68448;51.188;6.868;2023-03-12T13:43:40;27.43;;;7.07;;
29954;SDS011;68448;51.188;6.868;2023-03-12T13:46:20;13.43;;;6.23;;
29954;SDS011;68448;51.188;6.868;2023-03-12T13:48:48;19.13;;;6.50;;
29954;SDS011;68448;51.188;6.868;2023-03-12T13:51:16;30.47;;;7.40;;
29954;SDS011;68448;51.188;6.868;2023-03-12T13:53:46;25.50;;;6.60;;
29954;SDS011;68448;51.188;6.868;2023-03-12T13:56:16;21.30;;;6.00;;
29954;SDS011;68448;51.188;6.868;2023-03-12T13:58:46;26.33;;;8.33;;
29954;SDS011;68448;51.188;6.868;2023-03-12T14:01:16;26.90;;;6.70;;
29954;SDS011;68448;51.188;6.868;2023-03-12T14:03:45;26.53;;;6.23;;
29954;SDS011;68448;51.188;6.868;2023-03-12T14:06:16;28.67;;;6.80;;
29954;SDS011;68448;51.188;6.868;2023-03-12T14:08:50;15.93;;;5.37;;
29954;SDS011;68448;51.188;6.868;2023-03-12T14:11:25;27.00;;;7.87;;
29954;SDS011;68448;51.188;6.868;2023-03-12T14:14:11;20.77;;;5.50;;
29954;SDS011;68448;51.188;6.868;2023-03-12T14:16:42;16.67;;;5.40;;
29954;SDS011;68448;51.188;6.868;2023-03-12T14:19:10;23.80;;;5.63;;
29954;SDS011;68448;51.188;6.868;2023-03-12T14:21:38;21.57;;;5.70;;
29954;SDS011;68448;51.188;6.868;2023-03-12T14:24:07;20.20;;;5.97;;
29954;SDS011;68448;51.188;6.868;2023-03-12T14:26:40;21.20;;;7.70;;
29954;SDS011;68448;51.188;6.868;2023-03-12T14:29:09;27.80;;;6.30;;
29954;SDS011;68448;51.188;6.868;2023-03-12T14:31:41;19.80;;;6.87;;
29954;SDS011;68448;51.188;6.868;2023-03-12T14:34:11;29.23;;;5.67;;
29954;SDS011;68448;51.188;6.868;2023-03-12T14:36:43;22.73;;;5.43;;
29954;SDS011;68448;51.188;6.868;2023-03-12T14:39:17;23.37;;;5.83;;
29954;SDS011;68448;51.188;6.868;2023-03-12T14:41:47;21.50;;;5.27;;
29954;SDS011;68448;51.188;6.868;2023-03-12T14:44:21;23.90;;;5.90;;
29954;SDS011;68448;51.188;6.868;2023-03-12T14:46:55;21.53;;;5.13;;
29954;SDS011;68448;51.188;6.868;2023-03-12T14:49:23;22.73;;;6.63;;
29954;SDS011;68448;51.188;6.868;2023-03-12T14:51:50;23.53;;;5.80;;
29954;SDS011;68448;51.188;6.868;2023-03-12T14:54:18;18.23;;;5.67;;
29954;SDS011;68448;51.188;6.868;2023-03-12T14:56:46;20.10;;;6.30;;
29954;SDS011;68448;51.188;6.868;2023-03-12T14:59:21;21.30;;;6.10;;